PWSweather.com
Personal Weather Stations
Station Observations
IPODRAVI2
Croatia, Trnovec BartoloveckiHR

CroatiaTrnovec BartoloveckiHR

Lat: 46.2947, Lon: 16.3989

Elevation: 535

Station Type: Davis Vantage Pro2 plus

http://www.pljusak.com/trnovec1/wx.html

High Low Average
Temperature 46.9°F8.3°C 27.2°F-2.7°C 35.2°F1.8°C
Dew Point 28.6°F-1.9°C 19.9°F-6.7°C 23.7°F-4.6°C
Winds 5.8 mph 9.3 kmh Calm Calm 1.0 mph SW1.6 kmh SW
Wind Gusts 10.4 mph16.7 kmh -- 1.0 mph1.6 kmh
Humidity 86% 39% 65%
Pressure 30.29 in1025.7 mb 29.94 in1013.9 mb -
Precipitation 0.00 in0.0 mm - -
Hour Temp Dew Point Humidity Winds Wind Gusts Pressure Precip Precip Rate Daily Precip Total
12:00 AM 30.9°F-0.6°C 23.6°F-4.7°C 74% Calm Calm -- 30.28 in1025.4 mb - 0.00 in0.0 mm 0.00 in0.0 mm
12:05 AM 30.9°F-0.6°C 23.6°F-4.7°C 74% Calm Calm -- 30.28 in1025.4 mb - 0.00 in0.0 mm 0.00 in0.0 mm
12:10 AM 30.8°F-0.7°C 23.5°F-4.7°C 74% Calm Calm -- 30.28 in1025.4 mb - 0.00 in0.0 mm 0.00 in0.0 mm
12:15 AM 30.8°F-0.7°C 24.1°F-4.4°C 76% Calm Calm -- 30.28 in1025.4 mb - 0.00 in0.0 mm 0.00 in0.0 mm
12:20 AM 30.9°F-0.6°C 25.2°F-3.8°C 79% Calm Calm -- 30.28 in1025.4 mb - 0.00 in0.0 mm 0.00 in0.0 mm
12:25 AM 31.0°F-0.6°C 25.9°F-3.4°C 81% Calm Calm -- 30.28 in1025.4 mb - 0.00 in0.0 mm 0.00 in0.0 mm
12:30 AM 31.0°F-0.6°C 25.9°F-3.4°C 81% Calm Calm -- 30.28 in1025.4 mb - 0.00 in0.0 mm 0.00 in0.0 mm
12:35 AM 31.0°F-0.6°C 25.9°F-3.4°C 81% Calm Calm -- 30.27 in1025.1 mb - 0.00 in0.0 mm 0.00 in0.0 mm
12:40 AM 31.0°F-0.6°C 26.2°F-3.2°C 82% Calm Calm -- 30.27 in1025.1 mb - 0.00 in0.0 mm 0.00 in0.0 mm
12:45 AM 31.1°F-0.5°C 26.2°F-3.2°C 82% Calm Calm -- 30.28 in1025.4 mb - 0.00 in0.0 mm 0.00 in0.0 mm
12:50 AM 31.1°F-0.5°C 26.3°F-3.2°C 82% Calm Calm -- 30.27 in1025.1 mb - 0.00 in0.0 mm 0.00 in0.0 mm
12:55 AM 31.2°F-0.4°C 26.3°F-3.2°C 82% Calm Calm -- 30.27 in1025.1 mb - 0.00 in0.0 mm 0.00 in0.0 mm
01:00 AM 31.2°F-0.4°C 26.3°F-3.2°C 82% Calm Calm -- 30.27 in1025.1 mb - 0.00 in0.0 mm 0.00 in0.0 mm
01:05 AM 31.3°F-0.4°C 26.4°F-3.1°C 82% Calm Calm -- 30.27 in1025.1 mb - 0.00 in0.0 mm 0.00 in0.0 mm
01:10 AM 31.2°F-0.4°C 26.4°F-3.1°C 82% Calm Calm -- 30.27 in1025.1 mb - 0.00 in0.0 mm 0.00 in0.0 mm
01:15 AM 31.3°F-0.4°C 26.4°F-3.1°C 82% Calm Calm -- 30.27 in1025.1 mb - 0.00 in0.0 mm 0.00 in0.0 mm
01:20 AM 31.3°F-0.4°C 26.4°F-3.1°C 82% Calm Calm -- 30.28 in1025.4 mb - 0.00 in0.0 mm 0.00 in0.0 mm
01:25 AM 31.2°F-0.4°C 26.3°F-3.2°C 82% Calm Calm -- 30.28 in1025.4 mb - 0.00 in0.0 mm 0.00 in0.0 mm
01:30 AM 31.1°F-0.5°C 26.3°F-3.2°C 82% Calm Calm -- 30.28 in1025.4 mb - 0.00 in0.0 mm 0.00 in0.0 mm
01:35 AM 31.1°F-0.5°C 26.0°F-3.3°C 81% Calm Calm -- 30.28 in1025.4 mb - 0.00 in0.0 mm 0.00 in0.0 mm
01:40 AM 31.0°F-0.6°C 25.9°F-3.4°C 81% Calm Calm -- 30.28 in1025.4 mb - 0.00 in0.0 mm 0.00 in0.0 mm
01:45 AM 30.9°F-0.6°C 25.5°F-3.6°C 80% Calm Calm -- 30.28 in1025.4 mb - 0.00 in0.0 mm 0.00 in0.0 mm
01:50 AM 30.9°F-0.6°C 25.5°F-3.6°C 80% Calm Calm -- 30.28 in1025.4 mb - 0.00 in0.0 mm 0.00 in0.0 mm
01:55 AM 30.9°F-0.6°C 25.8°F-3.4°C 81% Calm Calm -- 30.28 in1025.4 mb - 0.00 in0.0 mm 0.00 in0.0 mm
02:00 AM 30.8°F-0.7°C 25.7°F-3.5°C 81% Calm Calm -- 30.28 in1025.4 mb - 0.00 in0.0 mm 0.00 in0.0 mm
02:05 AM 30.7°F-0.7°C 25.5°F-3.6°C 81% Calm Calm -- 30.29 in1025.7 mb - 0.00 in0.0 mm 0.00 in0.0 mm
02:10 AM 30.4°F-0.9°C 25.6°F-3.6°C 82% Calm Calm -- 30.29 in1025.7 mb - 0.00 in0.0 mm 0.00 in0.0 mm
02:15 AM 30.3°F-0.9°C 25.5°F-3.6°C 82% Calm Calm -- 30.29 in1025.7 mb - 0.00 in0.0 mm 0.00 in0.0 mm
02:20 AM 30.1°F-1.1°C 25.3°F-3.7°C 82% Calm Calm -- 30.29 in1025.7 mb - 0.00 in0.0 mm 0.00 in0.0 mm
02:25 AM 29.8°F-1.2°C 25.3°F-3.7°C 83% 2.3 mph WSW3.7 kmh WSW 3.5 mph5.6 kmh 30.29 in1025.7 mb - 0.00 in0.0 mm 0.00 in0.0 mm
02:30 AM 29.7°F-1.3°C 25.1°F-3.8°C 83% 1.2 mph WSW1.9 kmh WSW 3.5 mph5.6 kmh 30.28 in1025.4 mb - 0.00 in0.0 mm 0.00 in0.0 mm
02:35 AM 29.5°F-1.4°C 25.0°F-3.9°C 83% 1.2 mph WSW1.9 kmh WSW 3.5 mph5.6 kmh 30.28 in1025.4 mb - 0.00 in0.0 mm 0.00 in0.0 mm
02:40 AM 29.4°F-1.4°C 24.9°F-3.9°C 83% Calm Calm -- 30.28 in1025.4 mb - 0.00 in0.0 mm 0.00 in0.0 mm
02:45 AM 29.3°F-1.5°C 24.8°F-4.0°C 83% Calm Calm 3.5 mph5.6 kmh 30.27 in1025.1 mb - 0.00 in0.0 mm 0.00 in0.0 mm
02:50 AM 29.2°F-1.6°C 25.0°F-3.9°C 84% Calm Calm -- 30.27 in1025.1 mb - 0.00 in0.0 mm 0.00 in0.0 mm
02:55 AM 29.1°F-1.6°C 24.9°F-3.9°C 84% Calm Calm -- 30.27 in1025.1 mb - 0.00 in0.0 mm 0.00 in0.0 mm
03:00 AM 29.0°F-1.7°C 25.1°F-3.8°C 85% Calm Calm 1.2 mph1.9 kmh 30.27 in1025.1 mb - 0.00 in0.0 mm 0.00 in0.0 mm
03:05 AM 29.0°F-1.7°C 25.1°F-3.8°C 85% Calm Calm 1.2 mph1.9 kmh 30.27 in1025.1 mb - 0.00 in0.0 mm 0.00 in0.0 mm
03:10 AM 29.0°F-1.7°C 25.1°F-3.8°C 85% 1.2 mph WNW1.9 kmh WNW 3.5 mph5.6 kmh 30.27 in1025.1 mb - 0.00 in0.0 mm 0.00 in0.0 mm
03:15 AM 29.0°F-1.7°C 25.1°F-3.8°C 85% 1.2 mph WNW1.9 kmh WNW 2.3 mph3.7 kmh 30.27 in1025.1 mb - 0.00 in0.0 mm 0.00 in0.0 mm
03:20 AM 29.0°F-1.7°C 25.1°F-3.8°C 85% 1.2 mph WNW1.9 kmh WNW 2.3 mph3.7 kmh 30.27 in1025.1 mb - 0.00 in0.0 mm 0.00 in0.0 mm
03:25 AM 29.0°F-1.7°C 25.1°F-3.8°C 85% Calm Calm -- 30.26 in1024.7 mb - 0.00 in0.0 mm 0.00 in0.0 mm
03:30 AM 29.1°F-1.6°C 25.2°F-3.8°C 85% 1.2 mph WNW1.9 kmh WNW 3.5 mph5.6 kmh 30.26 in1024.7 mb - 0.00 in0.0 mm 0.00 in0.0 mm
03:35 AM 29.2°F-1.6°C 25.0°F-3.9°C 84% Calm Calm -- 30.26 in1024.7 mb - 0.00 in0.0 mm 0.00 in0.0 mm
03:40 AM 29.2°F-1.6°C 25.0°F-3.9°C 84% 1.2 mph WNW1.9 kmh WNW 1.2 mph1.9 kmh 30.26 in1024.7 mb - 0.00 in0.0 mm 0.00 in0.0 mm
03:45 AM 29.2°F-1.6°C 25.0°F-3.9°C 84% Calm Calm 2.3 mph3.7 kmh 30.26 in1024.7 mb - 0.00 in0.0 mm 0.00 in0.0 mm
04:05 AM 29.1°F-1.6°C 24.6°F-4.1°C 83% Calm Calm -- 30.25 in1024.4 mb - 0.00 in0.0 mm 0.00 in0.0 mm
04:10 AM 29.1°F-1.6°C 24.6°F-4.1°C 83% 1.2 mph WNW1.9 kmh WNW 3.5 mph5.6 kmh 30.24 in1024.0 mb - 0.00 in0.0 mm 0.00 in0.0 mm
04:15 AM 29.0°F-1.7°C 24.5°F-4.2°C 83% Calm Calm 2.3 mph3.7 kmh 30.24 in1024.0 mb - 0.00 in0.0 mm 0.00 in0.0 mm
04:20 AM 29.0°F-1.7°C 24.5°F-4.2°C 83% Calm Calm 2.3 mph3.7 kmh 30.25 in1024.4 mb - 0.00 in0.0 mm 0.00 in0.0 mm
04:25 AM 29.0°F-1.7°C 24.5°F-4.2°C 83% Calm Calm -- 30.24 in1024.0 mb - 0.00 in0.0 mm 0.00 in0.0 mm
04:30 AM 28.9°F-1.7°C 24.4°F-4.2°C 83% Calm Calm -- 30.24 in1024.0 mb - 0.00 in0.0 mm 0.00 in0.0 mm
04:35 AM 28.8°F-1.8°C 24.3°F-4.3°C 83% 1.2 mph NW1.9 kmh NW 1.2 mph1.9 kmh 30.24 in1024.0 mb - 0.00 in0.0 mm 0.00 in0.0 mm
04:40 AM 28.8°F-1.8°C 24.0°F-4.4°C 82% 1.2 mph NW1.9 kmh NW 3.5 mph5.6 kmh 30.24 in1024.0 mb - 0.00 in0.0 mm 0.00 in0.0 mm
04:45 AM 28.8°F-1.8°C 23.7°F-4.6°C 81% 1.2 mph NNW1.9 kmh NNW 3.5 mph5.6 kmh 30.24 in1024.0 mb - 0.00 in0.0 mm 0.00 in0.0 mm
04:50 AM 28.9°F-1.7°C 23.8°F-4.6°C 81% 1.2 mph NW1.9 kmh NW 2.3 mph3.7 kmh 30.24 in1024.0 mb - 0.00 in0.0 mm 0.00 in0.0 mm
04:55 AM 28.9°F-1.7°C 23.8°F-4.6°C 81% Calm Calm 2.3 mph3.7 kmh 30.24 in1024.0 mb - 0.00 in0.0 mm 0.00 in0.0 mm
05:00 AM 28.8°F-1.8°C 23.7°F-4.6°C 81% 1.2 mph NW1.9 kmh NW 2.3 mph3.7 kmh 30.24 in1024.0 mb - 0.00 in0.0 mm 0.00 in0.0 mm
05:05 AM 28.7°F-1.8°C 23.6°F-4.7°C 81% 1.2 mph NW1.9 kmh NW 3.5 mph5.6 kmh 30.24 in1024.0 mb - 0.00 in0.0 mm 0.00 in0.0 mm
05:10 AM 28.7°F-1.8°C 23.6°F-4.7°C 81% Calm Calm -- 30.24 in1024.0 mb - 0.00 in0.0 mm 0.00 in0.0 mm
05:15 AM 28.7°F-1.8°C 23.6°F-4.7°C 81% Calm Calm -- 30.24 in1024.0 mb - 0.00 in0.0 mm 0.00 in0.0 mm
05:20 AM 28.7°F-1.8°C 23.6°F-4.7°C 81% Calm Calm -- 30.24 in1024.0 mb - 0.00 in0.0 mm 0.00 in0.0 mm
05:25 AM 28.6°F-1.9°C 23.5°F-4.7°C 81% Calm Calm -- 30.23 in1023.7 mb - 0.00 in0.0 mm 0.00 in0.0 mm
05:30 AM 28.6°F-1.9°C 23.5°F-4.7°C 81% Calm Calm -- 30.23 in1023.7 mb - 0.00 in0.0 mm 0.00 in0.0 mm
05:35 AM 28.7°F-1.8°C 23.6°F-4.7°C 81% Calm Calm -- 30.23 in1023.7 mb - 0.00 in0.0 mm 0.00 in0.0 mm
05:40 AM 28.6°F-1.9°C 23.5°F-4.7°C 81% Calm Calm -- 30.23 in1023.7 mb - 0.00 in0.0 mm 0.00 in0.0 mm
05:45 AM 28.6°F-1.9°C 23.5°F-4.7°C 81% Calm Calm -- 30.23 in1023.7 mb - 0.00 in0.0 mm 0.00 in0.0 mm
05:50 AM 28.6°F-1.9°C 23.5°F-4.7°C 81% Calm Calm -- 30.23 in1023.7 mb - 0.00 in0.0 mm 0.00 in0.0 mm
05:55 AM 28.5°F-1.9°C 23.4°F-4.8°C 81% Calm Calm -- 30.23 in1023.7 mb - 0.00 in0.0 mm 0.00 in0.0 mm
06:00 AM 28.4°F-2.0°C 23.3°F-4.8°C 81% Calm Calm -- 30.23 in1023.7 mb - 0.00 in0.0 mm 0.00 in0.0 mm
06:05 AM 28.3°F-2.1°C 23.5°F-4.7°C 82% Calm Calm -- 30.23 in1023.7 mb - 0.00 in0.0 mm 0.00 in0.0 mm
06:10 AM 28.2°F-2.1°C 23.4°F-4.8°C 82% Calm Calm -- 30.23 in1023.7 mb - 0.00 in0.0 mm 0.00 in0.0 mm
06:15 AM 28.1°F-2.2°C 23.0°F-5.0°C 81% Calm Calm -- 30.23 in1023.7 mb - 0.00 in0.0 mm 0.00 in0.0 mm
06:20 AM 28.1°F-2.2°C 23.3°F-4.8°C 82% Calm Calm -- 30.24 in1024.0 mb - 0.00 in0.0 mm 0.00 in0.0 mm
06:25 AM 28.1°F-2.2°C 23.3°F-4.8°C 82% Calm Calm -- 30.23 in1023.7 mb - 0.00 in0.0 mm 0.00 in0.0 mm
06:30 AM 28.1°F-2.2°C 23.0°F-5.0°C 81% Calm Calm -- 30.24 in1024.0 mb - 0.00 in0.0 mm 0.00 in0.0 mm
06:35 AM 28.0°F-2.2°C 23.2°F-4.9°C 82% Calm Calm -- 30.24 in1024.0 mb - 0.00 in0.0 mm 0.00 in0.0 mm
06:40 AM 28.0°F-2.2°C 23.2°F-4.9°C 82% Calm Calm -- 30.25 in1024.4 mb - 0.00 in0.0 mm 0.00 in0.0 mm
06:45 AM 27.9°F-2.3°C 23.1°F-4.9°C 82% Calm Calm -- 30.25 in1024.4 mb - 0.00 in0.0 mm 0.00 in0.0 mm
06:50 AM 27.9°F-2.3°C 23.4°F-4.8°C 83% Calm Calm -- 30.25 in1024.4 mb - 0.00 in0.0 mm 0.00 in0.0 mm
06:55 AM 27.8°F-2.3°C 23.3°F-4.8°C 83% Calm Calm -- 30.24 in1024.0 mb - 0.00 in0.0 mm 0.00 in0.0 mm
07:00 AM 27.7°F-2.4°C 23.5°F-4.7°C 84% Calm Calm -- 30.24 in1024.0 mb - 0.00 in0.0 mm 0.00 in0.0 mm
07:05 AM 27.6°F-2.4°C 23.4°F-4.8°C 84% Calm Calm -- 30.24 in1024.0 mb - 0.00 in0.0 mm 0.00 in0.0 mm
07:15 AM 27.6°F-2.4°C 23.4°F-4.8°C 84% Calm Calm -- 30.24 in1024.0 mb - 0.00 in0.0 mm 0.00 in0.0 mm
07:20 AM 27.6°F-2.4°C 23.7°F-4.6°C 85% Calm Calm -- 30.24 in1024.0 mb - 0.00 in0.0 mm 0.00 in0.0 mm
07:25 AM 27.5°F-2.5°C 23.6°F-4.7°C 85% Calm Calm -- 30.24 in1024.0 mb - 0.00 in0.0 mm 0.00 in0.0 mm
07:30 AM 27.5°F-2.5°C 23.6°F-4.7°C 85% Calm Calm -- 30.24 in1024.0 mb - 0.00 in0.0 mm 0.00 in0.0 mm
07:35 AM 27.4°F-2.6°C 23.5°F-4.7°C 85% Calm Calm -- 30.24 in1024.0 mb - 0.00 in0.0 mm 0.00 in0.0 mm
07:40 AM 27.4°F-2.6°C 23.5°F-4.7°C 85% Calm Calm -- 30.24 in1024.0 mb - 0.00 in0.0 mm 0.00 in0.0 mm
07:45 AM 27.3°F-2.6°C 23.4°F-4.8°C 85% Calm Calm -- 30.25 in1024.4 mb - 0.00 in0.0 mm 0.00 in0.0 mm
07:50 AM 27.3°F-2.6°C 23.4°F-4.8°C 85% Calm Calm -- 30.25 in1024.4 mb - 0.00 in0.0 mm 0.00 in0.0 mm
07:55 AM 27.2°F-2.7°C 23.3°F-4.8°C 85% Calm Calm -- 30.25 in1024.4 mb - 0.00 in0.0 mm 0.00 in0.0 mm
08:00 AM 27.3°F-2.6°C 23.7°F-4.6°C 86% Calm Calm -- 30.25 in1024.4 mb - 0.00 in0.0 mm 0.00 in0.0 mm
08:05 AM 27.4°F-2.6°C 23.7°F-4.6°C 86% Calm Calm -- 30.25 in1024.4 mb - 0.00 in0.0 mm 0.00 in0.0 mm
08:10 AM 27.5°F-2.5°C 23.9°F-4.5°C 86% Calm Calm -- 30.25 in1024.4 mb - 0.00 in0.0 mm 0.00 in0.0 mm
08:15 AM 27.6°F-2.4°C 24.0°F-4.4°C 86% Calm Calm -- 30.25 in1024.4 mb - 0.00 in0.0 mm 0.00 in0.0 mm
08:20 AM 27.7°F-2.4°C 23.8°F-4.6°C 85% Calm Calm -- 30.25 in1024.4 mb - 0.00 in0.0 mm 0.00 in0.0 mm
08:25 AM 28.0°F-2.2°C 24.3°F-4.3°C 86% Calm Calm -- 30.24 in1024.0 mb - 0.00 in0.0 mm 0.00 in0.0 mm
08:30 AM 28.2°F-2.1°C 24.3°F-4.3°C 85% Calm Calm -- 30.25 in1024.4 mb - 0.00 in0.0 mm 0.00 in0.0 mm
08:35 AM 28.6°F-1.9°C 24.6°F-4.1°C 85% Calm Calm -- 30.25 in1024.4 mb - 0.00 in0.0 mm 0.00 in0.0 mm
08:40 AM 28.9°F-1.7°C 24.7°F-4.1°C 84% Calm Calm -- 30.24 in1024.0 mb - 0.00 in0.0 mm 0.00 in0.0 mm
08:45 AM 29.4°F-1.4°C 25.2°F-3.8°C 84% Calm Calm -- 30.24 in1024.0 mb - 0.00 in0.0 mm 0.00 in0.0 mm
08:50 AM 29.9°F-1.2°C 25.1°F-3.8°C 82% Calm Calm -- 30.24 in1024.0 mb - 0.00 in0.0 mm 0.00 in0.0 mm
08:55 AM 30.3°F-0.9°C 25.2°F-3.8°C 81% Calm Calm -- 30.23 in1023.7 mb - 0.00 in0.0 mm 0.00 in0.0 mm
09:00 AM 30.7°F-0.7°C 25.5°F-3.6°C 81% Calm Calm -- 30.23 in1023.7 mb - 0.00 in0.0 mm 0.00 in0.0 mm
09:05 AM 31.0°F-0.6°C 25.6°F-3.6°C 80% Calm Calm -- 30.23 in1023.7 mb - 0.00 in0.0 mm 0.00 in0.0 mm
09:10 AM 31.4°F-0.3°C 25.9°F-3.4°C 80% Calm Calm -- 30.23 in1023.7 mb - 0.00 in0.0 mm 0.00 in0.0 mm
09:15 AM 31.8°F-0.1°C 26.3°F-3.2°C 80% Calm Calm -- 30.23 in1023.7 mb - 0.00 in0.0 mm 0.00 in0.0 mm
09:20 AM 32.1°F0.1°C 26.6°F-3.0°C 80% Calm Calm -- 30.24 in1024.0 mb - 0.00 in0.0 mm 0.00 in0.0 mm
09:25 AM 32.4°F0.2°C 26.7°F-2.9°C 79% Calm Calm -- 30.24 in1024.0 mb - 0.00 in0.0 mm 0.00 in0.0 mm
09:30 AM 33.0°F0.6°C 26.9°F-2.8°C 78% Calm Calm -- 30.24 in1024.0 mb - 0.00 in0.0 mm 0.00 in0.0 mm
09:35 AM 33.6°F0.9°C 26.9°F-2.8°C 76% Calm Calm -- 30.24 in1024.0 mb - 0.00 in0.0 mm 0.00 in0.0 mm
09:40 AM 34.2°F1.2°C 26.8°F-2.9°C 74% Calm Calm -- 30.23 in1023.7 mb - 0.00 in0.0 mm 0.00 in0.0 mm
09:45 AM 34.8°F1.6°C 27.3°F-2.6°C 74% Calm Calm -- 30.23 in1023.7 mb - 0.00 in0.0 mm 0.00 in0.0 mm
09:50 AM 35.3°F1.8°C 27.5°F-2.5°C 73% Calm Calm -- 30.23 in1023.7 mb - 0.00 in0.0 mm 0.00 in0.0 mm
09:55 AM 35.8°F2.1°C 27.6°F-2.4°C 72% Calm Calm -- 30.23 in1023.7 mb - 0.00 in0.0 mm 0.00 in0.0 mm
10:00 AM 36.3°F2.4°C 27.8°F-2.3°C 71% Calm Calm -- 30.23 in1023.7 mb - 0.00 in0.0 mm 0.00 in0.0 mm
10:05 AM 36.6°F2.6°C 27.4°F-2.6°C 69% Calm Calm -- 30.23 in1023.7 mb - 0.00 in0.0 mm 0.00 in0.0 mm
10:10 AM 37.0°F2.8°C 27.5°F-2.5°C 68% Calm Calm -- 30.23 in1023.7 mb - 0.00 in0.0 mm 0.00 in0.0 mm
10:15 AM 37.4°F3.0°C 28.5°F-1.9°C 70% Calm Calm -- 30.22 in1023.4 mb - 0.00 in0.0 mm 0.00 in0.0 mm
10:20 AM 37.1°F2.8°C 28.3°F-2.1°C 70% Calm Calm -- 30.22 in1023.4 mb - 0.00 in0.0 mm 0.00 in0.0 mm
10:25 AM 37.9°F3.3°C 28.3°F-2.1°C 68% Calm Calm -- 30.21 in1023.0 mb - 0.00 in0.0 mm 0.00 in0.0 mm
10:30 AM 38.5°F3.6°C 27.7°F-2.4°C 65% Calm Calm -- 30.21 in1023.0 mb - 0.00 in0.0 mm 0.00 in0.0 mm
10:35 AM 38.9°F3.8°C 27.4°F-2.6°C 63% Calm Calm -- 30.21 in1023.0 mb - 0.00 in0.0 mm 0.00 in0.0 mm
10:40 AM 39.6°F4.2°C 27.7°F-2.4°C 62% Calm Calm -- 30.21 in1023.0 mb - 0.00 in0.0 mm 0.00 in0.0 mm
10:45 AM 40.2°F4.6°C 28.6°F-1.9°C 63% Calm Calm -- 30.21 in1023.0 mb - 0.00 in0.0 mm 0.00 in0.0 mm
10:50 AM 40.2°F4.6°C 28.3°F-2.1°C 62% Calm Calm -- 30.20 in1022.7 mb - 0.00 in0.0 mm 0.00 in0.0 mm
10:55 AM 40.9°F4.9°C 27.3°F-2.6°C 58% Calm Calm -- 30.20 in1022.7 mb - 0.00 in0.0 mm 0.00 in0.0 mm
11:00 AM 41.8°F5.4°C 26.8°F-2.9°C 55% Calm Calm -- 30.20 in1022.7 mb - 0.00 in0.0 mm 0.00 in0.0 mm
11:05 AM 42.5°F5.8°C 25.6°F-3.6°C 51% Calm Calm -- 30.20 in1022.7 mb - 0.00 in0.0 mm 0.00 in0.0 mm
11:10 AM 43.2°F6.2°C 25.3°F-3.7°C 49% Calm Calm -- 30.20 in1022.7 mb - 0.00 in0.0 mm 0.00 in0.0 mm
11:20 AM 43.6°F6.4°C 23.6°F-4.7°C 45% Calm Calm 2.3 mph3.7 kmh 30.20 in1022.7 mb - 0.00 in0.0 mm 0.00 in0.0 mm
11:25 AM 43.9°F6.6°C 23.4°F-4.8°C 44% Calm Calm 2.3 mph3.7 kmh 30.20 in1022.7 mb - 0.00 in0.0 mm 0.00 in0.0 mm
11:30 AM 44.4°F6.9°C 23.2°F-4.9°C 43% Calm Calm 1.2 mph1.9 kmh 30.20 in1022.7 mb - 0.00 in0.0 mm 0.00 in0.0 mm
11:35 AM 45.1°F7.3°C 23.3°F-4.8°C 42% 1.2 mph SSW1.9 kmh SSW 4.6 mph7.4 kmh 30.20 in1022.7 mb - 0.00 in0.0 mm 0.00 in0.0 mm
11:40 AM 44.9°F7.2°C 22.0°F-5.6°C 40% 2.3 mph SW3.7 kmh SW 3.5 mph5.6 kmh 30.19 in1022.4 mb - 0.00 in0.0 mm 0.00 in0.0 mm
11:45 AM 44.8°F7.1°C 22.5°F-5.3°C 41% 1.2 mph SSW1.9 kmh SSW 3.5 mph5.6 kmh 30.19 in1022.4 mb - 0.00 in0.0 mm 0.00 in0.0 mm
11:50 AM 44.9°F7.2°C 22.6°F-5.2°C 41% 2.3 mph SW3.7 kmh SW 3.5 mph5.6 kmh 30.18 in1022.0 mb - 0.00 in0.0 mm 0.00 in0.0 mm
11:55 AM 44.7°F7.1°C 22.4°F-5.3°C 41% 1.2 mph SSW1.9 kmh SSW 3.5 mph5.6 kmh 30.18 in1022.0 mb - 0.00 in0.0 mm 0.00 in0.0 mm
12:00 PM 44.9°F7.2°C 22.6°F-5.2°C 41% 2.3 mph S3.7 kmh S 4.6 mph7.4 kmh 30.18 in1022.0 mb - 0.00 in0.0 mm 0.00 in0.0 mm
12:05 PM 45.1°F7.3°C 23.3°F-4.8°C 42% 1.2 mph SSW1.9 kmh SSW 3.5 mph5.6 kmh 30.17 in1021.7 mb - 0.00 in0.0 mm 0.00 in0.0 mm
12:15 PM 45.8°F7.7°C 24.0°F-4.4°C 42% 1.2 mph SSW1.9 kmh SSW 8.1 mph13.0 kmh 30.16 in1021.3 mb - 0.00 in0.0 mm 0.00 in0.0 mm
12:20 PM 46.0°F7.8°C 23.6°F-4.7°C 41% 2.3 mph SSW3.7 kmh SSW 4.6 mph7.4 kmh 30.16 in1021.3 mb - 0.00 in0.0 mm 0.00 in0.0 mm
12:25 PM 46.2°F7.9°C 23.7°F-4.6°C 41% 2.3 mph S3.7 kmh S 6.9 mph11.1 kmh 30.16 in1021.3 mb - 0.00 in0.0 mm 0.00 in0.0 mm
12:30 PM 46.2°F7.9°C 23.8°F-4.6°C 41% 2.3 mph SSW3.7 kmh SSW 4.6 mph7.4 kmh 30.16 in1021.3 mb - 0.00 in0.0 mm 0.00 in0.0 mm
12:35 PM 46.6°F8.1°C 24.7°F-4.1°C 42% 3.5 mph SSW5.6 kmh SSW 8.1 mph13.0 kmh 30.16 in1021.3 mb - 0.00 in0.0 mm 0.00 in0.0 mm
12:40 PM 46.2°F7.9°C 23.8°F-4.6°C 41% 2.3 mph SW3.7 kmh SW 2.3 mph3.7 kmh 30.15 in1021.0 mb - 0.00 in0.0 mm 0.00 in0.0 mm
12:45 PM 46.2°F7.9°C 24.9°F-3.9°C 43% 2.3 mph S3.7 kmh S 8.1 mph13.0 kmh 30.15 in1021.0 mb - 0.00 in0.0 mm 0.00 in0.0 mm
12:50 PM 46.1°F7.8°C 24.3°F-4.3°C 42% 5.8 mph SSW9.3 kmh SSW 9.2 mph14.8 kmh 30.14 in1020.7 mb - 0.00 in0.0 mm 0.00 in0.0 mm
12:55 PM 46.0°F7.8°C 23.0°F-5.0°C 40% 3.5 mph SW5.6 kmh SW 8.1 mph13.0 kmh 30.14 in1020.7 mb - 0.00 in0.0 mm 0.00 in0.0 mm
01:00 PM 46.1°F7.8°C 23.7°F-4.6°C 41% 3.5 mph SSW5.6 kmh SSW 4.6 mph7.4 kmh 30.14 in1020.7 mb - 0.00 in0.0 mm 0.00 in0.0 mm
01:05 PM 46.6°F8.1°C 24.7°F-4.1°C 42% 3.5 mph SW5.6 kmh SW 6.9 mph11.1 kmh 30.13 in1020.3 mb - 0.00 in0.0 mm 0.00 in0.0 mm
01:10 PM 46.7°F8.2°C 24.2°F-4.3°C 41% 4.6 mph SW7.4 kmh SW 10.4 mph16.7 kmh 30.13 in1020.3 mb - 0.00 in0.0 mm 0.00 in0.0 mm
01:15 PM 46.4°F8.0°C 23.4°F-4.8°C 40% 3.5 mph SW5.6 kmh SW 4.6 mph7.4 kmh 30.12 in1020.0 mb - 0.00 in0.0 mm 0.00 in0.0 mm
01:20 PM 46.4°F8.0°C 23.4°F-4.8°C 40% 3.5 mph SW5.6 kmh SW 5.8 mph9.3 kmh 30.12 in1020.0 mb - 0.00 in0.0 mm 0.00 in0.0 mm
01:25 PM 46.4°F8.0°C 23.4°F-4.8°C 40% 3.5 mph SSW5.6 kmh SSW 8.1 mph13.0 kmh 30.12 in1020.0 mb - 0.00 in0.0 mm 0.00 in0.0 mm
01:30 PM 46.4°F8.0°C 23.9°F-4.5°C 41% 3.5 mph SSW5.6 kmh SSW 6.9 mph11.1 kmh 30.12 in1020.0 mb - 0.00 in0.0 mm 0.00 in0.0 mm
01:35 PM 46.6°F8.1°C 24.1°F-4.4°C 41% 2.3 mph SSW3.7 kmh SSW 3.5 mph5.6 kmh 30.12 in1020.0 mb - 0.00 in0.0 mm 0.00 in0.0 mm
01:40 PM 46.8°F8.2°C 24.3°F-4.3°C 41% 1.2 mph SW1.9 kmh SW 2.3 mph3.7 kmh 30.11 in1019.6 mb - 0.00 in0.0 mm 0.00 in0.0 mm
01:45 PM 46.9°F8.3°C 23.8°F-4.6°C 40% 2.3 mph S3.7 kmh S 3.5 mph5.6 kmh 30.11 in1019.6 mb - 0.00 in0.0 mm 0.00 in0.0 mm
01:50 PM 46.8°F8.2°C 24.9°F-3.9°C 42% Calm Calm 3.5 mph5.6 kmh 30.11 in1019.6 mb - 0.00 in0.0 mm 0.00 in0.0 mm
01:55 PM 46.7°F8.2°C 24.2°F-4.3°C 41% 1.2 mph S1.9 kmh S 4.6 mph7.4 kmh 30.11 in1019.6 mb - 0.00 in0.0 mm 0.00 in0.0 mm
02:00 PM 46.5°F8.1°C 22.8°F-5.1°C 39% 3.5 mph SW5.6 kmh SW 6.9 mph11.1 kmh 30.10 in1019.3 mb - 0.00 in0.0 mm 0.00 in0.0 mm
02:05 PM 46.4°F8.0°C 23.9°F-4.5°C 41% 3.5 mph SW5.6 kmh SW 6.9 mph11.1 kmh 30.10 in1019.3 mb - 0.00 in0.0 mm 0.00 in0.0 mm
02:10 PM 46.3°F7.9°C 23.9°F-4.5°C 41% Calm Calm 1.2 mph1.9 kmh 30.10 in1019.3 mb - 0.00 in0.0 mm 0.00 in0.0 mm
02:15 PM 46.3°F7.9°C 23.3°F-4.8°C 40% Calm Calm 1.2 mph1.9 kmh 30.10 in1019.3 mb - 0.00 in0.0 mm 0.00 in0.0 mm
02:20 PM 46.3°F7.9°C 22.7°F-5.2°C 39% Calm Calm 3.5 mph5.6 kmh 30.09 in1019.0 mb - 0.00 in0.0 mm 0.00 in0.0 mm
02:25 PM 46.2°F7.9°C 23.8°F-4.6°C 41% 2.3 mph S3.7 kmh S 4.6 mph7.4 kmh 30.09 in1019.0 mb - 0.00 in0.0 mm 0.00 in0.0 mm
02:30 PM 46.0°F7.8°C 22.4°F-5.3°C 39% 2.3 mph SW3.7 kmh SW 3.5 mph5.6 kmh 30.09 in1019.0 mb - 0.00 in0.0 mm 0.00 in0.0 mm
02:35 PM 46.0°F7.8°C 22.4°F-5.3°C 39% 1.2 mph WSW1.9 kmh WSW 1.2 mph1.9 kmh 30.09 in1019.0 mb - 0.00 in0.0 mm 0.00 in0.0 mm
02:40 PM 45.8°F7.7°C 22.8°F-5.1°C 40% 3.5 mph S5.6 kmh S 5.8 mph9.3 kmh 30.09 in1019.0 mb - 0.00 in0.0 mm 0.00 in0.0 mm
02:45 PM 45.5°F7.5°C 23.1°F-4.9°C 41% Calm Calm 1.2 mph1.9 kmh 30.09 in1019.0 mb - 0.00 in0.0 mm 0.00 in0.0 mm
02:50 PM 45.4°F7.4°C 21.9°F-5.6°C 39% Calm Calm 2.3 mph3.7 kmh 30.09 in1019.0 mb - 0.00 in0.0 mm 0.00 in0.0 mm
02:55 PM 45.4°F7.4°C 22.5°F-5.3°C 40% 2.3 mph SW3.7 kmh SW 4.6 mph7.4 kmh 30.08 in1018.6 mb - 0.00 in0.0 mm 0.00 in0.0 mm
03:00 PM 45.2°F7.3°C 23.5°F-4.7°C 42% Calm Calm 1.2 mph1.9 kmh 30.07 in1018.3 mb - 0.00 in0.0 mm 0.00 in0.0 mm
03:05 PM 45.0°F7.2°C 22.7°F-5.2°C 41% Calm Calm -- 30.07 in1018.3 mb - 0.00 in0.0 mm 0.00 in0.0 mm
03:10 PM 44.8°F7.1°C 22.5°F-5.3°C 41% 1.2 mph S1.9 kmh S 3.5 mph5.6 kmh 30.07 in1018.3 mb - 0.00 in0.0 mm 0.00 in0.0 mm
03:15 PM 44.6°F7.0°C 22.9°F-5.1°C 42% 2.3 mph S3.7 kmh S 3.5 mph5.6 kmh 30.07 in1018.3 mb - 0.00 in0.0 mm 0.00 in0.0 mm
03:20 PM 44.4°F6.9°C 21.6°F-5.8°C 40% 2.3 mph SSW3.7 kmh SSW 3.5 mph5.6 kmh 30.07 in1018.3 mb - 0.00 in0.0 mm 0.00 in0.0 mm
03:25 PM 44.4°F6.9°C 22.1°F-5.5°C 41% Calm Calm -- 30.07 in1018.3 mb - 0.00 in0.0 mm 0.00 in0.0 mm
03:30 PM 44.3°F6.8°C 21.5°F-5.8°C 40% Calm Calm -- 30.07 in1018.3 mb - 0.00 in0.0 mm 0.00 in0.0 mm
03:35 PM 44.3°F6.8°C 21.5°F-5.8°C 40% 1.2 mph SSW1.9 kmh SSW 3.5 mph5.6 kmh 30.07 in1018.3 mb - 0.00 in0.0 mm 0.00 in0.0 mm
03:40 PM 44.1°F6.7°C 21.3°F-5.9°C 40% 1.2 mph SSW1.9 kmh SSW 3.5 mph5.6 kmh 30.07 in1018.3 mb - 0.00 in0.0 mm 0.00 in0.0 mm
03:45 PM 43.8°F6.6°C 21.6°F-5.8°C 41% 1.2 mph SW1.9 kmh SW 2.3 mph3.7 kmh 30.07 in1018.3 mb - 0.00 in0.0 mm 0.00 in0.0 mm
03:50 PM 43.5°F6.4°C 21.9°F-5.6°C 42% Calm Calm -- 30.07 in1018.3 mb - 0.00 in0.0 mm 0.00 in0.0 mm
03:55 PM 43.2°F6.2°C 21.7°F-5.7°C 42% Calm Calm -- 30.07 in1018.3 mb - 0.00 in0.0 mm 0.00 in0.0 mm
04:00 PM 42.9°F6.1°C 21.4°F-5.9°C 42% Calm Calm -- 30.06 in1017.9 mb - 0.00 in0.0 mm 0.00 in0.0 mm
04:05 PM 42.7°F5.9°C 21.2°F-6.0°C 42% Calm Calm -- 30.06 in1017.9 mb - 0.00 in0.0 mm 0.00 in0.0 mm
04:10 PM 42.4°F5.8°C 20.9°F-6.2°C 42% Calm Calm -- 30.05 in1017.6 mb - 0.00 in0.0 mm 0.00 in0.0 mm
04:15 PM 42.2°F5.7°C 21.3°F-5.9°C 43% Calm Calm 3.5 mph5.6 kmh 30.05 in1017.6 mb - 0.00 in0.0 mm 0.00 in0.0 mm
04:20 PM 42.0°F5.6°C 20.5°F-6.4°C 42% 1.2 mph SW1.9 kmh SW 3.5 mph5.6 kmh 30.05 in1017.6 mb - 0.00 in0.0 mm 0.00 in0.0 mm
04:25 PM 42.0°F5.6°C 19.9°F-6.7°C 41% 1.2 mph SW1.9 kmh SW 2.3 mph3.7 kmh 30.05 in1017.6 mb - 0.00 in0.0 mm 0.00 in0.0 mm
04:30 PM 41.9°F5.5°C 21.0°F-6.1°C 43% Calm Calm 1.2 mph1.9 kmh 30.05 in1017.6 mb - 0.00 in0.0 mm 0.00 in0.0 mm
04:35 PM 41.7°F5.4°C 20.8°F-6.2°C 43% Calm Calm 1.2 mph1.9 kmh 30.05 in1017.6 mb - 0.00 in0.0 mm 0.00 in0.0 mm
04:40 PM 41.4°F5.2°C 21.1°F-6.1°C 44% Calm Calm -- 30.05 in1017.6 mb - 0.00 in0.0 mm 0.00 in0.0 mm
04:45 PM 41.1°F5.1°C 20.8°F-6.2°C 44% Calm Calm -- 30.05 in1017.6 mb - 0.00 in0.0 mm 0.00 in0.0 mm
04:50 PM 40.7°F4.8°C 21.5°F-5.8°C 46% Calm Calm -- 30.05 in1017.6 mb - 0.00 in0.0 mm 0.00 in0.0 mm
04:55 PM 40.3°F4.6°C 21.2°F-6.0°C 46% Calm Calm -- 30.05 in1017.6 mb - 0.00 in0.0 mm 0.00 in0.0 mm
05:00 PM 40.0°F4.4°C 21.4°F-5.9°C 47% Calm Calm -- 30.05 in1017.6 mb - 0.00 in0.0 mm 0.00 in0.0 mm
05:05 PM 39.7°F4.3°C 21.1°F-6.1°C 47% 1.2 mph WSW1.9 kmh WSW 3.5 mph5.6 kmh 30.05 in1017.6 mb - 0.00 in0.0 mm 0.00 in0.0 mm
05:10 PM 39.5°F4.2°C 21.4°F-5.9°C 48% 2.3 mph WSW3.7 kmh WSW 3.5 mph5.6 kmh 30.04 in1017.3 mb - 0.00 in0.0 mm 0.00 in0.0 mm
05:15 PM 39.4°F4.1°C 21.3°F-5.9°C 48% 2.3 mph SW3.7 kmh SW 3.5 mph5.6 kmh 30.04 in1017.3 mb - 0.00 in0.0 mm 0.00 in0.0 mm
05:20 PM 39.3°F4.1°C 21.2°F-6.0°C 48% 2.3 mph SW3.7 kmh SW 4.6 mph7.4 kmh 30.04 in1017.3 mb - 0.00 in0.0 mm 0.00 in0.0 mm
05:25 PM 39.2°F4.0°C 21.1°F-6.1°C 48% 2.3 mph SW3.7 kmh SW 4.6 mph7.4 kmh 30.04 in1017.3 mb - 0.00 in0.0 mm 0.00 in0.0 mm
05:30 PM 39.3°F4.1°C 21.2°F-6.0°C 48% 1.2 mph SW1.9 kmh SW 3.5 mph5.6 kmh 30.04 in1017.3 mb - 0.00 in0.0 mm 0.00 in0.0 mm
05:35 PM 39.3°F4.1°C 21.2°F-6.0°C 48% 1.2 mph SW1.9 kmh SW 3.5 mph5.6 kmh 30.03 in1016.9 mb - 0.00 in0.0 mm 0.00 in0.0 mm
05:40 PM 39.3°F4.1°C 21.2°F-6.0°C 48% 1.2 mph WSW1.9 kmh WSW 2.3 mph3.7 kmh 30.04 in1017.3 mb - 0.00 in0.0 mm 0.00 in0.0 mm
05:45 PM 39.1°F3.9°C 21.6°F-5.8°C 49% Calm Calm 2.3 mph3.7 kmh 30.03 in1016.9 mb - 0.00 in0.0 mm 0.00 in0.0 mm
05:50 PM 38.9°F3.8°C 20.9°F-6.2°C 48% Calm Calm 3.5 mph5.6 kmh 30.03 in1016.9 mb - 0.00 in0.0 mm 0.00 in0.0 mm
05:55 PM 38.7°F3.7°C 21.2°F-6.0°C 49% Calm Calm -- 30.03 in1016.9 mb - 0.00 in0.0 mm 0.00 in0.0 mm
06:00 PM 38.7°F3.7°C 21.1°F-6.1°C 49% Calm Calm -- 30.03 in1016.9 mb - 0.00 in0.0 mm 0.00 in0.0 mm
06:05 PM 38.5°F3.6°C 21.5°F-5.8°C 50% Calm Calm 2.3 mph3.7 kmh 30.03 in1016.9 mb - 0.00 in0.0 mm 0.00 in0.0 mm
06:10 PM 38.3°F3.5°C 21.3°F-5.9°C 50% Calm Calm 1.2 mph1.9 kmh 30.03 in1016.9 mb - 0.00 in0.0 mm 0.00 in0.0 mm
06:15 PM 38.0°F3.3°C 21.5°F-5.8°C 51% Calm Calm -- 30.03 in1016.9 mb - 0.00 in0.0 mm 0.00 in0.0 mm
06:20 PM 37.8°F3.2°C 21.3°F-5.9°C 51% Calm Calm -- 30.02 in1016.6 mb - 0.00 in0.0 mm 0.00 in0.0 mm
06:25 PM 37.5°F3.1°C 21.5°F-5.8°C 52% Calm Calm -- 30.03 in1016.9 mb - 0.00 in0.0 mm 0.00 in0.0 mm
06:30 PM 37.3°F2.9°C 21.3°F-5.9°C 52% Calm Calm -- 30.02 in1016.6 mb - 0.00 in0.0 mm 0.00 in0.0 mm
06:35 PM 37.1°F2.8°C 21.1°F-6.1°C 52% Calm Calm -- 30.02 in1016.6 mb - 0.00 in0.0 mm 0.00 in0.0 mm
06:40 PM 36.8°F2.7°C 21.3°F-5.9°C 53% Calm Calm -- 30.02 in1016.6 mb - 0.00 in0.0 mm 0.00 in0.0 mm
06:45 PM 36.6°F2.6°C 21.5°F-5.8°C 54% Calm Calm 1.2 mph1.9 kmh 30.02 in1016.6 mb - 0.00 in0.0 mm 0.00 in0.0 mm
06:50 PM 36.5°F2.5°C 21.4°F-5.9°C 54% Calm Calm -- 30.02 in1016.6 mb - 0.00 in0.0 mm 0.00 in0.0 mm
06:55 PM 36.4°F2.4°C 20.9°F-6.2°C 53% Calm Calm -- 30.02 in1016.6 mb - 0.00 in0.0 mm 0.00 in0.0 mm
07:00 PM 36.3°F2.4°C 21.2°F-6.0°C 54% Calm Calm 1.2 mph1.9 kmh 30.01 in1016.3 mb - 0.00 in0.0 mm 0.00 in0.0 mm
07:05 PM 36.4°F2.4°C 21.3°F-5.9°C 54% 1.2 mph SW1.9 kmh SW 3.5 mph5.6 kmh 30.01 in1016.3 mb - 0.00 in0.0 mm 0.00 in0.0 mm
07:10 PM 36.9°F2.7°C 21.3°F-5.9°C 53% 1.2 mph SW1.9 kmh SW 3.5 mph5.6 kmh 30.01 in1016.3 mb - 0.00 in0.0 mm 0.00 in0.0 mm
07:15 PM 37.2°F2.9°C 21.2°F-6.0°C 52% 1.2 mph SW1.9 kmh SW 2.3 mph3.7 kmh 30.01 in1016.3 mb - 0.00 in0.0 mm 0.00 in0.0 mm
07:25 PM 37.2°F2.9°C 21.6°F-5.8°C 53% Calm Calm -- 30.01 in1016.3 mb - 0.00 in0.0 mm 0.00 in0.0 mm
07:30 PM 36.9°F2.7°C 22.2°F-5.4°C 55% Calm Calm -- 30.01 in1016.3 mb - 0.00 in0.0 mm 0.00 in0.0 mm
07:35 PM 36.5°F2.5°C 21.8°F-5.7°C 55% Calm Calm -- 30.01 in1016.3 mb - 0.00 in0.0 mm 0.00 in0.0 mm
07:40 PM 36.1°F2.3°C 22.4°F-5.3°C 57% Calm Calm -- 30.01 in1016.3 mb - 0.00 in0.0 mm 0.00 in0.0 mm
07:45 PM 35.8°F2.1°C 22.1°F-5.5°C 57% Calm Calm -- 30.01 in1016.3 mb - 0.00 in0.0 mm 0.00 in0.0 mm
07:50 PM 35.6°F2.0°C 22.2°F-5.4°C 58% Calm Calm -- 30.00 in1015.9 mb - 0.00 in0.0 mm 0.00 in0.0 mm
07:55 PM 35.3°F1.8°C 22.4°F-5.3°C 59% Calm Calm -- 30.00 in1015.9 mb - 0.00 in0.0 mm 0.00 in0.0 mm
08:00 PM 34.9°F1.6°C 22.8°F-5.1°C 61% Calm Calm -- 30.01 in1016.3 mb - 0.00 in0.0 mm 0.00 in0.0 mm
08:05 PM 34.5°F1.4°C 22.1°F-5.5°C 60% Calm Calm -- 30.00 in1015.9 mb - 0.00 in0.0 mm 0.00 in0.0 mm
08:10 PM 34.2°F1.2°C 22.6°F-5.2°C 62% Calm Calm -- 30.00 in1015.9 mb - 0.00 in0.0 mm 0.00 in0.0 mm
08:15 PM 34.0°F1.1°C 23.1°F-4.9°C 64% Calm Calm -- 30.00 in1015.9 mb - 0.00 in0.0 mm 0.00 in0.0 mm
08:20 PM 33.7°F0.9°C 23.5°F-4.7°C 66% Calm Calm -- 30.00 in1015.9 mb - 0.00 in0.0 mm 0.00 in0.0 mm
08:25 PM 33.5°F0.8°C 23.4°F-4.8°C 66% Calm Calm -- 30.00 in1015.9 mb - 0.00 in0.0 mm 0.00 in0.0 mm
08:30 PM 33.3°F0.7°C 23.5°F-4.7°C 67% Calm Calm -- 30.00 in1015.9 mb - 0.00 in0.0 mm 0.00 in0.0 mm
08:35 PM 33.0°F0.6°C 23.3°F-4.8°C 67% Calm Calm -- 30.00 in1015.9 mb - 0.00 in0.0 mm 0.00 in0.0 mm
08:40 PM 32.8°F0.4°C 23.0°F-5.0°C 67% Calm Calm -- 30.00 in1015.9 mb - 0.00 in0.0 mm 0.00 in0.0 mm
08:45 PM 32.6°F0.3°C 22.8°F-5.1°C 67% Calm Calm -- 30.00 in1015.9 mb - 0.00 in0.0 mm 0.00 in0.0 mm
08:50 PM 32.4°F0.2°C 22.7°F-5.2°C 67% Calm Calm -- 30.00 in1015.9 mb - 0.00 in0.0 mm 0.00 in0.0 mm
08:55 PM 32.3°F0.2°C 22.6°F-5.2°C 67% Calm Calm -- 30.00 in1015.9 mb - 0.00 in0.0 mm 0.00 in0.0 mm
09:00 PM 32.3°F0.2°C 22.6°F-5.2°C 67% Calm Calm -- 29.99 in1015.6 mb - 0.00 in0.0 mm 0.00 in0.0 mm
09:05 PM 32.2°F0.1°C 22.5°F-5.3°C 67% Calm Calm -- 29.99 in1015.6 mb - 0.00 in0.0 mm 0.00 in0.0 mm
09:10 PM 32.1°F0.1°C 22.7°F-5.2°C 68% Calm Calm -- 29.99 in1015.6 mb - 0.00 in0.0 mm 0.00 in0.0 mm
09:15 PM 32.0°F0.0°C 23.0°F-5.0°C 69% Calm Calm -- 29.98 in1015.2 mb - 0.00 in0.0 mm 0.00 in0.0 mm
09:20 PM 31.8°F-0.1°C 23.1°F-4.9°C 70% Calm Calm -- 29.98 in1015.2 mb - 0.00 in0.0 mm 0.00 in0.0 mm
09:25 PM 31.6°F-0.2°C 23.3°F-4.8°C 71% Calm Calm -- 29.98 in1015.2 mb - 0.00 in0.0 mm 0.00 in0.0 mm
09:30 PM 31.5°F-0.3°C 23.2°F-4.9°C 71% Calm Calm -- 29.98 in1015.2 mb - 0.00 in0.0 mm 0.00 in0.0 mm
09:35 PM 31.3°F-0.4°C 23.3°F-4.8°C 72% Calm Calm -- 29.98 in1015.2 mb - 0.00 in0.0 mm 0.00 in0.0 mm
09:40 PM 31.2°F-0.4°C 23.5°F-4.7°C 73% Calm Calm -- 29.98 in1015.2 mb - 0.00 in0.0 mm 0.00 in0.0 mm
09:45 PM 31.1°F-0.5°C 23.5°F-4.7°C 73% Calm Calm -- 29.97 in1014.9 mb - 0.00 in0.0 mm 0.00 in0.0 mm
09:50 PM 31.0°F-0.6°C 23.4°F-4.8°C 73% Calm Calm -- 29.97 in1014.9 mb - 0.00 in0.0 mm 0.00 in0.0 mm
09:55 PM 30.9°F-0.6°C 23.3°F-4.8°C 73% Calm Calm -- 29.97 in1014.9 mb - 0.00 in0.0 mm 0.00 in0.0 mm
10:00 PM 30.9°F-0.6°C 23.6°F-4.7°C 74% Calm Calm -- 29.97 in1014.9 mb - 0.00 in0.0 mm 0.00 in0.0 mm
10:05 PM 30.8°F-0.7°C 23.5°F-4.7°C 74% Calm Calm -- 29.96 in1014.6 mb - 0.00 in0.0 mm 0.00 in0.0 mm
10:10 PM 30.6°F-0.8°C 23.6°F-4.7°C 75% Calm Calm -- 29.96 in1014.6 mb - 0.00 in0.0 mm 0.00 in0.0 mm
10:15 PM 30.5°F-0.8°C 23.5°F-4.7°C 75% Calm Calm -- 29.95 in1014.2 mb - 0.00 in0.0 mm 0.00 in0.0 mm
10:20 PM 30.3°F-0.9°C 23.6°F-4.7°C 76% Calm Calm -- 29.95 in1014.2 mb - 0.00 in0.0 mm 0.00 in0.0 mm
10:25 PM 30.2°F-1.0°C 23.5°F-4.7°C 76% Calm Calm -- 29.95 in1014.2 mb - 0.00 in0.0 mm 0.00 in0.0 mm
10:30 PM 30.2°F-1.0°C 23.5°F-4.7°C 76% Calm Calm -- 29.96 in1014.6 mb - 0.00 in0.0 mm 0.00 in0.0 mm
10:35 PM 30.2°F-1.0°C 23.9°F-4.5°C 77% Calm Calm -- 29.96 in1014.6 mb - 0.00 in0.0 mm 0.00 in0.0 mm
10:40 PM 30.2°F-1.0°C 23.9°F-4.5°C 77% Calm Calm -- 29.96 in1014.6 mb - 0.00 in0.0 mm 0.00 in0.0 mm
10:45 PM 30.2°F-1.0°C 23.9°F-4.5°C 77% Calm Calm -- 29.96 in1014.6 mb - 0.00 in0.0 mm 0.00 in0.0 mm
10:50 PM 30.1°F-1.1°C 23.8°F-4.6°C 77% Calm Calm -- 29.95 in1014.2 mb - 0.00 in0.0 mm 0.00 in0.0 mm
10:55 PM 30.0°F-1.1°C 24.0°F-4.4°C 78% Calm Calm -- 29.95 in1014.2 mb - 0.00 in0.0 mm 0.00 in0.0 mm
11:00 PM 29.9°F-1.2°C 24.2°F-4.3°C 79% Calm Calm -- 29.95 in1014.2 mb - 0.00 in0.0 mm 0.00 in0.0 mm
11:05 PM 29.8°F-1.2°C 24.1°F-4.4°C 79% Calm Calm -- 29.95 in1014.2 mb - 0.00 in0.0 mm 0.00 in0.0 mm
11:10 PM 29.7°F-1.3°C 24.3°F-4.3°C 80% Calm Calm -- 29.95 in1014.2 mb - 0.00 in0.0 mm 0.00 in0.0 mm
11:15 PM 29.6°F-1.3°C 24.5°F-4.2°C 81% Calm Calm -- 29.94 in1013.9 mb - 0.00 in0.0 mm 0.00 in0.0 mm
11:20 PM 29.6°F-1.3°C 24.8°F-4.0°C 82% Calm Calm -- 29.95 in1014.2 mb - 0.00 in0.0 mm 0.00 in0.0 mm
11:25 PM 29.5°F-1.4°C 24.4°F-4.2°C 81% Calm Calm -- 29.94 in1013.9 mb - 0.00 in0.0 mm 0.00 in0.0 mm
11:30 PM 29.5°F-1.4°C 24.4°F-4.2°C 81% Calm Calm -- 29.95 in1014.2 mb - 0.00 in0.0 mm 0.00 in0.0 mm
11:35 PM 29.4°F-1.4°C 24.0°F-4.4°C 80% Calm Calm -- 29.95 in1014.2 mb - 0.00 in0.0 mm 0.00 in0.0 mm
11:40 PM 29.3°F-1.5°C 24.2°F-4.3°C 81% Calm Calm -- 29.94 in1013.9 mb - 0.00 in0.0 mm 0.00 in0.0 mm
11:45 PM 29.1°F-1.6°C 24.0°F-4.4°C 81% Calm Calm -- 29.94 in1013.9 mb - 0.00 in0.0 mm 0.00 in0.0 mm
11:50 PM 29.0°F-1.7°C 23.9°F-4.5°C 81% Calm Calm -- 29.94 in1013.9 mb - 0.00 in0.0 mm 0.00 in0.0 mm
11:55 PM 29.0°F-1.7°C 23.9°F-4.5°C 81% Calm Calm -- 29.94 in1013.9 mb - 0.00 in0.0 mm 0.00 in0.0 mm